Time;durP1;ratioP1;P1;durP2;ratioP2;P2;SDS_P1;SDS_P2;PMS_P1;PMS_P2;Temp;Humidity;BMP_temperature;BMP_pressure;BME280_temperature;BME280_humidity;BME280_pressure;Samples;Min_cycle;Max_cycle;Signal;HPM_P1;HPM_P2
2021/10/20 00:00:59;;;;;;;24.38;16.58;;;10.10;99.90;;;;;;5067330;28;20021;-75
2021/10/20 00:03:24;;;;;;;22.52;15.05;;;10.10;99.90;;;;;;5067810;28;20020;-76
2021/10/20 00:05:50;;;;;;;25.08;14.98;;;10.10;99.90;;;;;;5069619;28;20393;-76
2021/10/20 00:08:16;;;;;;;23.17;15.07;;;10.10;99.90;;;;;;5072269;28;20035;-76
2021/10/20 00:10:41;;;;;;;23.05;15.05;;;10.10;99.90;;;;;;5072338;28;20493;-75
2021/10/20 00:13:08;;;;;;;22.77;14.38;;;10.20;99.90;;;;;;5069591;28;20107;-76
2021/10/20 00:15:33;;;;;;;20.95;14.45;;;10.20;99.90;;;;;;5066927;28;20035;-76
2021/10/20 00:17:59;;;;;;;21.90;14.90;;;10.20;99.90;;;;;;5064631;28;20104;-76
2021/10/20 00:20:27;;;;;;;24.23;14.85;;;10.20;99.90;;;;;;5070775;28;20409;-76
2021/10/20 00:22:53;;;;;;;23.52;14.95;;;10.20;99.90;;;;;;5070921;28;20044;-75
2021/10/20 00:25:19;;;;;;;20.20;14.02;;;10.20;99.90;;;;;;5071529;28;20052;-77
2021/10/20 00:27:45;;;;;;;22.73;14.60;;;10.20;99.90;;;;;;5067085;28;20029;-77
2021/10/20 00:30:13;;;;;;;25.38;14.95;;;10.20;99.90;;;;;;5070071;28;20040;-76
2021/10/20 00:32:38;;;;;;;21.48;13.52;;;10.20;99.90;;;;;;5071796;28;20032;-76
2021/10/20 00:35:05;;;;;;;21.08;14.50;;;10.30;99.90;;;;;;5071452;28;20023;-76
2021/10/20 00:37:31;;;;;;;20.50;13.50;;;10.20;99.90;;;;;;5071636;28;20103;-76
2021/10/20 00:39:57;;;;;;;20.80;13.90;;;10.20;99.90;;;;;;5071200;28;20392;-76
2021/10/20 00:42:23;;;;;;;24.48;14.57;;;10.20;99.90;;;;;;5066137;28;20029;-76
2021/10/20 00:44:54;;;;;;;20.77;13.70;;;10.30;99.90;;;;;;5067790;28;20112;-76
2021/10/20 00:47:21;;;;;;;23.25;14.93;;;10.30;99.90;;;;;;5067879;28;20068;-77
2021/10/20 00:49:48;;;;;;;20.40;13.40;;;10.30;99.90;;;;;;5070260;28;20040;-76
2021/10/20 00:52:15;;;;;;;19.98;14.02;;;10.30;99.90;;;;;;5082896;28;20413;-75
2021/10/20 00:54:41;;;;;;;23.05;14.32;;;10.30;99.90;;;;;;5065096;28;20035;-76
2021/10/20 00:57:09;;;;;;;20.67;14.50;;;10.20;99.90;;;;;;5068839;28;20035;-76
2021/10/20 00:59:36;;;;;;;25.45;14.73;;;10.20;99.90;;;;;;5067662;28;20111;-76
2021/10/20 01:02:03;;;;;;;23.92;14.15;;;10.30;99.90;;;;;;5060917;28;20120;-76
2021/10/20 01:04:29;;;;;;;19.25;13.95;;;10.20;99.90;;;;;;5070836;28;20033;-76
2021/10/20 01:06:55;;;;;;;18.92;13.52;;;10.30;99.90;;;;;;5069437;28;20060;-76
2021/10/20 01:09:21;;;;;;;20.48;14.43;;;10.30;99.90;;;;;;5066878;28;20059;-77
2021/10/20 01:11:46;;;;;;;25.05;14.52;;;10.20;99.90;;;;;;5066586;28;20024;-76
2021/10/20 01:14:13;;;;;;;19.75;13.73;;;10.20;99.90;;;;;;5068074;28;20016;-76
2021/10/20 01:16:39;;;;;;;19.98;12.93;;;10.20;99.90;;;;;;5066409;28;20028;-77
2021/10/20 01:19:06;;;;;;;17.00;12.02;;;10.20;99.90;;;;;;5068190;28;20029;-76
2021/10/20 01:21:32;;;;;;;17.85;13.00;;;10.20;99.90;;;;;;5069306;28;20393;-76
2021/10/20 01:23:59;;;;;;;21.23;14.00;;;10.20;99.90;;;;;;5068339;28;20040;-77
2021/10/20 01:26:25;;;;;;;19.40;13.32;;;10.30;99.90;;;;;;5060928;28;20035;-76
2021/10/20 01:28:51;;;;;;;19.42;13.35;;;10.30;99.90;;;;;;5067551;28;20173;-77
2021/10/20 01:31:17;;;;;;;18.77;13.73;;;10.30;99.90;;;;;;5062536;28;20078;-77
2021/10/20 01:33:42;;;;;;;19.30;13.20;;;10.30;99.90;;;;;;5063947;28;20036;-77
2021/10/20 01:36:08;;;;;;;20.20;13.43;;;10.30;99.90;;;;;;5060949;28;20028;-76
2021/10/20 01:38:34;;;;;;;20.30;14.27;;;10.30;99.90;;;;;;5068411;28;20059;-77
2021/10/20 01:41:00;;;;;;;17.98;12.70;;;10.30;99.90;;;;;;5058815;28;20035;-77
2021/10/20 01:43:38;;;;;;;17.30;12.43;;;10.30;99.90;;;;;;5071328;28;20025;-76
2021/10/20 01:46:03;;;;;;;19.83;13.43;;;10.30;99.90;;;;;;5067707;28;20047;-76
2021/10/20 01:48:29;;;;;;;17.67;12.82;;;10.30;99.90;;;;;;5067698;28;20501;-77
2021/10/20 01:50:55;;;;;;;18.90;13.00;;;10.30;99.90;;;;;;5066722;28;20025;-76
2021/10/20 01:53:20;;;;;;;16.77;12.55;;;10.30;99.90;;;;;;5059739;28;20112;-77
2021/10/20 01:55:46;;;;;;;17.13;12.43;;;10.30;99.90;;;;;;5066680;28;20055;-77
2021/10/20 01:58:11;;;;;;;18.17;11.77;;;10.30;99.90;;;;;;5065074;28;20409;-76
2021/10/20 02:00:37;;;;;;;18.27;11.60;;;10.30;99.90;;;;;;5064896;28;20039;-76
2021/10/20 02:03:03;;;;;;;20.60;12.82;;;10.40;99.90;;;;;;5070341;28;20440;-76
2021/10/20 02:05:28;;;;;;;16.95;11.80;;;10.40;99.90;;;;;;5069381;28;20029;-77
2021/10/20 02:07:54;;;;;;;18.58;12.38;;;10.40;99.90;;;;;;5069411;28;20110;-76
2021/10/20 02:10:20;;;;;;;19.65;11.57;;;10.40;99.90;;;;;;5069157;28;20099;-75
2021/10/20 02:12:45;;;;;;;17.20;11.50;;;10.40;99.90;;;;;;5068926;28;20436;-76
2021/10/20 02:15:12;;;;;;;17.15;11.60;;;10.40;99.90;;;;;;5069504;28;20048;-75
2021/10/20 02:17:38;;;;;;;18.77;12.27;;;10.40;99.90;;;;;;5064906;28;20017;-76
2021/10/20 02:20:14;;;;;;;17.95;12.10;;;10.40;99.90;;;;;;5067533;28;20485;-76
2021/10/20 02:22:42;;;;;;;17.30;12.35;;;10.40;99.90;;;;;;5065104;28;20058;-75
2021/10/20 02:25:08;;;;;;;14.90;11.15;;;10.40;99.90;;;;;;5064266;28;20048;-76
2021/10/20 02:27:34;;;;;;;16.80;11.65;;;10.40;99.90;;;;;;5066966;28;20450;-76
2021/10/20 02:30:00;;;;;;;17.58;11.70;;;10.50;99.90;;;;;;5058420;28;20059;-76
2021/10/20 02:32:25;;;;;;;17.98;11.32;;;10.50;99.90;;;;;;5064961;28;20044;-76
2021/10/20 02:34:51;;;;;;;16.75;11.15;;;10.50;99.90;;;;;;5069916;28;20032;-76
2021/10/20 02:37:17;;;;;;;15.63;10.82;;;10.60;99.90;;;;;;5068095;28;20032;-76
2021/10/20 02:39:43;;;;;;;16.95;12.13;;;10.50;99.90;;;;;;5067428;28;20031;-76
2021/10/20 02:42:08;;;;;;;20.13;11.65;;;10.50;99.90;;;;;;5066363;28;20032;-76
2021/10/20 02:44:34;;;;;;;18.33;12.13;;;10.60;99.90;;;;;;5069582;28;20074;-76
2021/10/20 02:47:00;;;;;;;17.88;11.75;;;10.60;99.90;;;;;;5069803;28;20096;-76
2021/10/20 02:49:25;;;;;;;16.05;12.10;;;10.60;99.90;;;;;;5073508;28;20037;-76
2021/10/20 02:51:51;;;;;;;18.85;11.93;;;10.60;99.90;;;;;;5055716;28;20033;-75
2021/10/20 02:54:19;;;;;;;17.20;12.27;;;10.60;99.90;;;;;;5065436;28;20108;-75
2021/10/20 02:56:45;;;;;;;18.90;13.20;;;10.60;99.90;;;;;;5060490;28;20175;-75
2021/10/20 02:59:11;;;;;;;17.90;12.90;;;10.50;99.90;;;;;;5059995;28;20020;-75
2021/10/20 03:01:36;;;;;;;17.48;11.98;;;10.50;99.90;;;;;;5062097;28;20033;-75
2021/10/20 03:04:03;;;;;;;19.38;12.80;;;10.50;99.90;;;;;;5066441;28;20055;-75
2021/10/20 03:06:28;;;;;;;16.75;12.98;;;10.50;99.90;;;;;;5062439;28;20017;-75
2021/10/20 03:08:54;;;;;;;16.40;11.55;;;10.50;99.90;;;;;;5057589;28;20040;-75
2021/10/20 03:11:19;;;;;;;15.80;11.85;;;10.50;99.90;;;;;;5067276;28;20057;-77
2021/10/20 03:13:45;;;;;;;18.38;12.23;;;10.50;99.90;;;;;;5072911;28;20104;-77
2021/10/20 03:16:11;;;;;;;18.73;12.55;;;10.50;99.90;;;;;;5069047;28;20023;-76
2021/10/20 03:18:37;;;;;;;16.13;11.40;;;10.50;99.90;;;;;;5070271;28;20059;-78
2021/10/20 03:21:02;;;;;;;17.77;11.50;;;10.50;99.90;;;;;;5071639;28;20100;-76
2021/10/20 03:23:28;;;;;;;17.83;11.57;;;10.50;99.90;;;;;;5071181;28;20028;-76
2021/10/20 03:25:54;;;;;;;18.02;11.65;;;10.50;99.90;;;;;;5067832;28;20611;-77
2021/10/20 03:28:19;;;;;;;20.73;12.30;;;10.50;99.90;;;;;;5072031;28;20071;-76
2021/10/20 03:30:45;;;;;;;15.55;11.65;;;10.50;99.90;;;;;;5069868;28;20430;-76
2021/10/20 03:33:11;;;;;;;16.73;11.77;;;10.50;99.90;;;;;;5070055;28;20036;-77
2021/10/20 03:35:36;;;;;;;15.93;11.45;;;10.50;99.90;;;;;;5070859;28;20063;-76
2021/10/20 03:38:03;;;;;;;16.15;11.82;;;10.50;99.90;;;;;;5071295;28;20512;-76
2021/10/20 03:40:28;;;;;;;13.80;10.88;;;10.50;99.90;;;;;;5071936;28;20028;-76
2021/10/20 03:42:54;;;;;;;15.93;11.45;;;10.50;99.90;;;;;;5071593;28;20036;-75
2021/10/20 03:45:20;;;;;;;15.55;11.10;;;10.40;99.90;;;;;;5069767;28;20035;-76
2021/10/20 03:47:46;;;;;;;17.25;10.82;;;10.50;99.90;;;;;;5069567;28;20020;-76
2021/10/20 03:50:12;;;;;;;15.25;10.15;;;10.50;99.90;;;;;;5064896;28;20035;-76
2021/10/20 03:52:37;;;;;;;18.73;11.30;;;10.50;99.90;;;;;;5073698;28;20048;-76
2021/10/20 03:55:05;;;;;;;15.18;12.00;;;10.50;99.90;;;;;;5067269;28;20434;-76
2021/10/20 03:57:35;;;;;;;14.15;10.65;;;10.50;99.90;;;;;;5070450;28;20056;-76
2021/10/20 04:00:03;;;;;;;13.35;10.73;;;10.50;99.90;;;;;;5062135;28;20059;-76
2021/10/20 04:02:28;;;;;;;17.98;11.02;;;10.50;99.90;;;;;;5069687;28;20060;-76
2021/10/20 04:04:54;;;;;;;17.73;11.50;;;10.50;99.90;;;;;;5069059;28;20489;-76
2021/10/20 04:07:20;;;;;;;15.07;11.07;;;10.50;99.90;;;;;;5071006;28;20038;-76
2021/10/20 04:09:45;;;;;;;15.30;11.68;;;10.50;99.90;;;;;;5068630;28;20481;-77
2021/10/20 04:12:11;;;;;;;15.35;11.57;;;10.50;99.90;;;;;;5069128;28;20028;-76
2021/10/20 04:14:36;;;;;;;15.27;10.40;;;10.50;99.90;;;;;;5059355;28;20362;-76
2021/10/20 04:17:03;;;;;;;15.30;11.23;;;10.50;99.90;;;;;;5069852;28;20154;-76
2021/10/20 04:19:28;;;;;;;15.05;11.20;;;10.50;99.90;;;;;;5071645;28;20070;-77
2021/10/20 04:21:54;;;;;;;15.95;10.73;;;10.60;99.90;;;;;;5067447;28;20032;-77
2021/10/20 04:24:20;;;;;;;13.68;10.38;;;10.60;99.90;;;;;;5066897;28;20052;-76
2021/10/20 04:26:45;;;;;;;14.02;10.00;;;10.60;99.90;;;;;;5069220;28;20027;-76
2021/10/20 04:29:11;;;;;;;15.82;9.88;;;10.70;99.90;;;;;;5062625;28;20120;-76
2021/10/20 04:31:37;;;;;;;14.27;10.38;;;10.70;99.90;;;;;;5072055;28;20031;-76
2021/10/20 04:34:02;;;;;;;13.88;9.93;;;10.70;99.90;;;;;;5068766;28;20028;-77
2021/10/20 04:36:28;;;;;;;13.70;9.88;;;10.70;99.90;;;;;;5064371;28;20029;-76
2021/10/20 04:38:54;;;;;;;17.27;10.48;;;10.80;99.90;;;;;;5066389;28;20086;-76
2021/10/20 04:41:19;;;;;;;13.95;10.10;;;10.70;99.90;;;;;;5065060;28;20086;-77
2021/10/20 04:43:45;;;;;;;15.38;9.93;;;10.80;99.90;;;;;;5071785;28;20035;-75
2021/10/20 04:46:11;;;;;;;13.27;8.90;;;10.90;99.90;;;;;;5069616;28;20043;-77
2021/10/20 04:48:36;;;;;;;15.05;8.73;;;10.90;99.90;;;;;;5056218;28;20060;-76
2021/10/20 04:51:02;;;;;;;15.07;8.80;;;10.90;99.90;;;;;;5065508;28;20115;-76
2021/10/20 04:53:28;;;;;;;13.45;9.35;;;10.90;99.90;;;;;;5069228;28;20025;-77
2021/10/20 04:55:53;;;;;;;14.60;8.98;;;10.90;99.90;;;;;;5069600;28;20141;-75
2021/10/20 04:58:19;;;;;;;14.35;9.35;;;11.00;99.90;;;;;;5069893;28;20029;-76
2021/10/20 05:00:45;;;;;;;14.43;9.38;;;11.10;99.90;;;;;;5068258;28;20121;-76
2021/10/20 05:03:10;;;;;;;12.10;8.55;;;11.10;99.90;;;;;;5068145;28;20036;-76
2021/10/20 05:05:36;;;;;;;16.50;9.18;;;11.00;99.90;;;;;;5064635;28;20031;-76
2021/10/20 05:08:02;;;;;;;12.70;8.75;;;11.00;99.90;;;;;;5069195;28;20386;-77
2021/10/20 05:10:28;;;;;;;13.60;8.75;;;11.10;99.90;;;;;;5070954;28;20017;-76
2021/10/20 05:12:56;;;;;;;12.35;8.35;;;11.10;99.90;;;;;;5069589;28;20033;-76
2021/10/20 05:15:22;;;;;;;11.32;8.50;;;11.00;99.90;;;;;;5067831;28;20393;-76
2021/10/20 05:17:47;;;;;;;12.55;8.77;;;11.10;99.90;;;;;;5068880;28;20474;-76
2021/10/20 05:20:15;;;;;;;12.85;8.68;;;11.10;99.90;;;;;;5057356;28;20025;-76
2021/10/20 05:22:42;;;;;;;15.45;9.10;;;11.10;99.90;;;;;;5066902;28;20582;-76
2021/10/20 05:25:10;;;;;;;13.52;8.63;;;11.20;99.90;;;;;;5064390;28;20040;-76
2021/10/20 05:27:36;;;;;;;16.73;7.85;;;11.10;99.90;;;;;;5067955;28;20021;-76
2021/10/20 05:30:02;;;;;;;15.23;8.45;;;11.10;99.90;;;;;;5067428;28;20102;-77
2021/10/20 05:32:29;;;;;;;11.32;7.85;;;11.20;99.90;;;;;;5067805;28;20021;-76
2021/10/20 05:34:55;;;;;;;11.10;8.10;;;11.20;99.90;;;;;;5067345;28;20021;-76
2021/10/20 05:37:22;;;;;;;12.45;8.32;;;11.20;99.90;;;;;;5068160;28;20052;-78
2021/10/20 05:39:48;;;;;;;12.88;8.30;;;11.20;99.90;;;;;;5066370;28;20032;-76
2021/10/20 05:42:17;;;;;;;13.27;7.03;;;11.30;99.90;;;;;;5060867;28;20036;-77
2021/10/20 05:44:43;;;;;;;12.50;7.05;;;11.30;99.90;;;;;;5069795;28;20388;-77
2021/10/20 05:47:09;;;;;;;12.38;8.45;;;11.40;99.90;;;;;;5065581;28;20119;-77
2021/10/20 05:49:35;;;;;;;11.88;6.75;;;11.40;99.90;;;;;;5071821;28;20032;-76
2021/10/20 05:52:00;;;;;;;12.20;7.78;;;11.40;99.90;;;;;;5069695;28;20020;-76
2021/10/20 05:54:26;;;;;;;11.20;7.75;;;11.50;99.90;;;;;;5065630;28;20083;-76
2021/10/20 05:56:52;;;;;;;11.45;7.82;;;11.50;99.90;;;;;;5061413;28;20028;-76
2021/10/20 05:59:23;;;;;;;12.82;7.50;;;11.50;99.90;;;;;;5065141;28;20520;-76
2021/10/20 06:01:50;;;;;;;12.93;7.85;;;11.50;99.90;;;;;;5063656;28;20044;-77
2021/10/20 06:04:19;;;;;;;10.73;7.07;;;11.60;99.90;;;;;;5069369;28;20054;-76
2021/10/20 06:06:46;;;;;;;10.77;6.32;;;11.60;99.90;;;;;;5071754;28;20032;-76
2021/10/20 06:09:12;;;;;;;11.98;7.70;;;11.70;99.90;;;;;;5062497;28;20489;-77
2021/10/20 06:11:39;;;;;;;15.98;7.43;;;11.70;99.90;;;;;;5067905;28;20028;-77
2021/10/20 06:14:05;;;;;;;10.95;6.68;;;11.70;99.90;;;;;;5069314;28;20155;-76
2021/10/20 06:16:36;;;;;;;10.55;7.22;;;11.80;99.90;;;;;;5069134;28;20189;-76
2021/10/20 06:19:03;;;;;;;13.73;7.18;;;11.80;99.90;;;;;;5056777;28;20029;-77
2021/10/20 06:21:29;;;;;;;12.93;6.85;;;11.80;99.90;;;;;;5066352;28;20036;-77
2021/10/20 06:23:54;;;;;;;10.10;7.25;;;11.90;99.90;;;;;;5067758;28;20032;-76
2021/10/20 06:26:20;;;;;;;12.27;7.20;;;11.90;99.90;;;;;;5068463;28;20020;-76
2021/10/20 06:28:46;;;;;;;9.82;6.20;;;11.90;99.90;;;;;;5071201;28;20037;-76
2021/10/20 06:31:11;;;;;;;10.88;6.50;;;11.90;99.90;;;;;;5066831;28;20043;-77
2021/10/20 06:33:37;;;;;;;9.88;6.72;;;11.90;99.90;;;;;;5067532;28;20074;-77
2021/10/20 06:36:03;;;;;;;8.88;6.63;;;12.00;99.90;;;;;;5064799;28;20025;-76
2021/10/20 06:38:28;;;;;;;9.13;6.20;;;12.00;99.90;;;;;;5066256;28;20033;-76
2021/10/20 06:40:54;;;;;;;10.00;6.45;;;12.00;99.90;;;;;;5068305;28;20055;-76
2021/10/20 06:43:19;;;;;;;16.95;7.70;;;12.00;99.90;;;;;;5056000;28;20120;-76
2021/10/20 06:45:45;;;;;;;12.10;6.88;;;12.00;99.90;;;;;;5066580;28;20021;-76
2021/10/20 06:48:11;;;;;;;12.20;6.38;;;12.00;99.90;;;;;;5060840;28;21091;-77
2021/10/20 06:50:37;;;;;;;12.35;6.82;;;12.00;99.90;;;;;;5065657;28;20047;-76
2021/10/20 06:53:02;;;;;;;12.07;7.95;;;12.00;99.90;;;;;;5063051;28;20123;-76
2021/10/20 06:55:28;;;;;;;12.32;7.20;;;12.10;99.90;;;;;;5063570;28;20032;-77
2021/10/20 06:57:54;;;;;;;12.40;7.00;;;12.00;99.90;;;;;;5065697;28;20039;-77
2021/10/20 07:00:20;;;;;;;13.07;7.43;;;12.10;99.90;;;;;;5063987;28;20128;-77
2021/10/20 07:02:46;;;;;;;14.32;7.05;;;12.10;99.90;;;;;;5074949;28;20082;-76
2021/10/20 07:05:11;;;;;;;10.45;6.38;;;12.10;99.90;;;;;;5067126;28;20432;-76
2021/10/20 07:07:38;;;;;;;8.77;6.40;;;12.20;99.90;;;;;;5067202;28;20025;-76
2021/10/20 07:10:04;;;;;;;10.75;7.25;;;12.20;99.90;;;;;;5067713;28;20032;-76
2021/10/20 07:12:32;;;;;;;12.95;7.38;;;12.30;99.90;;;;;;5066889;28;20032;-76
2021/10/20 07:14:58;;;;;;;13.32;7.63;;;12.30;99.90;;;;;;5066871;28;20115;-77
2021/10/20 07:17:24;;;;;;;11.55;7.38;;;12.30;99.90;;;;;;5061469;28;20106;-76
2021/10/20 07:19:50;;;;;;;12.23;7.07;;;12.40;99.90;;;;;;5063160;28;20036;-76
2021/10/20 07:22:16;;;;;;;9.00;6.55;;;12.40;99.90;;;;;;5065125;28;20028;-76
2021/10/20 07:24:41;;;;;;;11.23;6.13;;;12.50;99.90;;;;;;5064961;28;20397;-75
2021/10/20 07:27:07;;;;;;;9.90;7.28;;;12.50;99.90;;;;;;5067982;28;20029;-77
2021/10/20 07:29:33;;;;;;;7.35;5.75;;;12.60;99.90;;;;;;5060699;28;20037;-77
2021/10/20 07:31:59;;;;;;;9.82;6.60;;;12.70;99.90;;;;;;5073780;28;20029;-76
2021/10/20 07:34:25;;;;;;;11.70;6.43;;;12.70;99.90;;;;;;5066741;28;20144;-76
2021/10/20 07:36:51;;;;;;;9.75;6.45;;;12.90;99.90;;;;;;5061574;28;20100;-76
2021/10/20 07:39:17;;;;;;;8.82;6.63;;;12.90;99.90;;;;;;5061394;28;20381;-77
2021/10/20 07:41:42;;;;;;;12.60;6.97;;;12.90;99.90;;;;;;5060626;28;20578;-77
2021/10/20 07:44:08;;;;;;;12.38;6.70;;;13.00;99.90;;;;;;5056753;28;20514;-77
2021/10/20 07:46:34;;;;;;;8.10;5.90;;;13.00;99.90;;;;;;5063671;28;20033;-76
2021/10/20 07:49:00;;;;;;;11.15;6.53;;;13.00;99.90;;;;;;5059497;28;20040;-76
2021/10/20 07:51:26;;;;;;;8.73;5.60;;;13.10;99.90;;;;;;5063101;28;20512;-76
2021/10/20 07:53:52;;;;;;;7.90;6.00;;;13.20;99.90;;;;;;5061507;28;20033;-76
2021/10/20 07:56:17;;;;;;;16.50;5.53;;;13.30;99.90;;;;;;5068721;28;20035;-76
2021/10/20 07:58:43;;;;;;;9.95;5.90;;;13.40;99.90;;;;;;5070677;28;20551;-76
2021/10/20 08:01:11;;;;;;;7.38;5.50;;;13.40;99.90;;;;;;5057290;28;20029;-77
2021/10/20 08:03:37;;;;;;;9.93;6.10;;;13.40;99.90;;;;;;5067143;28;20032;-77
2021/10/20 08:06:03;;;;;;;10.63;6.03;;;13.50;99.90;;;;;;5067939;28;20430;-76
2021/10/20 08:08:28;;;;;;;7.97;4.93;;;13.50;99.90;;;;;;5070895;28;20174;-76
2021/10/20 08:10:54;;;;;;;11.07;6.40;;;13.50;99.90;;;;;;5070646;28;20028;-76
2021/10/20 08:13:20;;;;;;;9.65;6.28;;;13.60;99.90;;;;;;5063793;28;20025;-77
2021/10/20 08:15:45;;;;;;;10.00;6.78;;;13.60;99.90;;;;;;5065797;28;20040;-76
2021/10/20 08:18:11;;;;;;;14.80;6.45;;;13.60;99.90;;;;;;5062393;28;20035;-76
2021/10/20 08:20:38;;;;;;;10.27;5.75;;;13.70;99.90;;;;;;5058011;28;20016;-74
2021/10/20 08:23:05;;;;;;;10.80;5.85;;;13.90;99.90;;;;;;5060827;28;20091;-76
2021/10/20 08:25:34;;;;;;;8.88;6.60;;;14.10;99.90;;;;;;5064875;28;20053;-74
2021/10/20 08:28:00;;;;;;;11.23;6.23;;;14.30;99.90;;;;;;5069506;28;20432;-75
2021/10/20 08:30:26;;;;;;;11.90;5.70;;;14.40;99.90;;;;;;5067087;28;20086;-75
2021/10/20 08:32:56;;;;;;;9.18;6.00;;;14.60;99.90;;;;;;5067296;28;20056;-75
2021/10/20 08:35:21;;;;;;;9.25;6.07;;;14.70;99.90;;;;;;5069446;28;20033;-75
2021/10/20 08:38:00;;;;;;;9.63;6.25;;;14.80;99.90;;;;;;5062467;28;20086;-75
2021/10/20 08:40:29;;;;;;;8.20;5.45;;;14.90;99.90;;;;;;5068396;28;20028;-75
2021/10/20 08:42:56;;;;;;;11.02;5.93;;;14.90;99.90;;;;;;5067543;28;20109;-75
2021/10/20 08:45:21;;;;;;;8.18;5.68;;;15.00;99.90;;;;;;5063107;28;20068;-75
2021/10/20 08:47:47;;;;;;;7.05;5.10;;;15.00;99.90;;;;;;5061351;28;20052;-75
2021/10/20 08:50:21;;;;;;;6.50;5.50;;;15.10;99.90;;;;;;5061761;28;20025;-75
2021/10/20 08:52:49;;;;;;;9.40;5.15;;;15.10;99.90;;;;;;5066498;28;20491;-74
2021/10/20 08:55:16;;;;;;;10.20;6.05;;;15.20;99.90;;;;;;5069146;28;20489;-75
2021/10/20 08:57:43;;;;;;;8.45;5.65;;;15.20;99.90;;;;;;5067969;28;20441;-75
2021/10/20 09:00:10;;;;;;;10.38;5.22;;;15.30;99.90;;;;;;5067899;28;20195;-74
2021/10/20 09:02:39;;;;;;;7.90;5.38;;;15.30;99.90;;;;;;5067335;28;20523;-74
2021/10/20 09:05:06;;;;;;;7.00;4.90;;;15.40;99.90;;;;;;5067818;28;20054;-73
2021/10/20 09:07:32;;;;;;;8.73;5.15;;;15.50;99.90;;;;;;5059637;28;20017;-74
2021/10/20 09:09:58;;;;;;;11.52;5.55;;;15.60;99.90;;;;;;5066569;28;20047;-74
2021/10/20 09:12:26;;;;;;;7.38;5.53;;;15.70;99.90;;;;;;5063223;28;20449;-74
2021/10/20 09:14:56;;;;;;;7.20;5.28;;;15.80;99.90;;;;;;5064711;28;20051;-73
2021/10/20 09:17:22;;;;;;;7.55;5.50;;;15.80;99.90;;;;;;5055944;28;20119;-74
2021/10/20 09:19:48;;;;;;;10.02;5.25;;;15.90;99.90;;;;;;5054199;28;20452;-73
2021/10/20 09:22:14;;;;;;;7.47;5.22;;;16.00;99.90;;;;;;5055681;28;20047;-75
2021/10/20 09:24:42;;;;;;;9.38;5.10;;;16.10;99.90;;;;;;5065757;28;20033;-76
2021/10/20 09:27:18;;;;;;;8.63;5.20;;;16.20;99.90;;;;;;5058692;28;20032;-74
2021/10/20 09:29:44;;;;;;;7.85;4.90;;;16.20;99.90;;;;;;5063607;28;20036;-76
2021/10/20 09:32:10;;;;;;;7.05;4.70;;;16.40;99.90;;;;;;5066664;28;20035;-74
2021/10/20 09:34:40;;;;;;;6.95;4.85;;;16.40;99.90;;;;;;5066982;28;20077;-74
2021/10/20 09:37:07;;;;;;;;;;;16.40;99.90;;;;;;5068301;28;20028;-76
2021/10/20 09:39:33;;;;;;;7.40;4.40;;;16.50;99.90;;;;;;5063121;28;19916;-75
2021/10/20 09:42:11;;;;;;;6.82;4.57;;;16.50;99.90;;;;;;5065315;28;20090;-76
2021/10/20 09:44:50;;;;;;;7.18;4.28;;;16.60;99.90;;;;;;5056547;28;20508;-76
2021/10/20 09:47:16;;;;;;;9.23;4.97;;;16.60;99.90;;;;;;5057803;28;20520;-76
2021/10/20 09:49:57;;;;;;;7.50;5.05;;;16.70;99.90;;;;;;5064665;28;20191;-76
2021/10/20 09:52:25;;;;;;;5.80;4.78;;;16.70;99.90;;;;;;5065629;28;20112;-76
2021/10/20 09:54:52;;;;;;;10.20;5.43;;;16.70;99.90;;;;;;5058479;28;20080;-76
2021/10/20 09:57:17;;;;;;;7.05;4.78;;;16.80;99.90;;;;;;5056844;28;20055;-76
2021/10/20 09:59:46;;;;;;;5.93;4.60;;;16.80;99.90;;;;;;5054110;28;20052;-76
2021/10/20 10:02:12;;;;;;;7.57;4.60;;;16.80;99.90;;;;;;5056069;28;20096;-76
2021/10/20 10:04:39;;;;;;;6.03;5.03;;;16.90;99.90;;;;;;5065404;28;20039;-76
2021/10/20 10:07:05;;;;;;;6.60;4.10;;;16.90;99.90;;;;;;5057110;28;20025;-76
2021/10/20 10:09:32;;;;;;;8.27;4.57;;;16.90;99.90;;;;;;5060350;28;20068;-76
2021/10/20 10:11:59;;;;;;;9.18;4.68;;;16.90;99.90;;;;;;5063362;28;20439;-76
2021/10/20 10:14:30;;;;;;;8.13;4.32;;;17.00;99.90;;;;;;5061118;28;20111;-75
2021/10/20 10:16:59;;;;;;;8.35;4.63;;;17.00;99.90;;;;;;5065656;28;20599;-76
2021/10/20 10:19:39;;;;;;;11.20;5.30;;;17.10;99.90;;;;;;5069723;28;20043;-76
2021/10/20 10:22:26;;;;;;;6.90;4.40;;;17.10;99.90;;;;;;5068159;28;20104;-76
2021/10/20 10:24:53;;;;;;;8.63;5.07;;;17.20;99.90;;;;;;5072105;28;20076;-75
2021/10/20 10:27:21;;;;;;;5.82;4.45;;;17.30;99.90;;;;;;5070471;28;20107;-75
2021/10/20 10:30:03;;;;;;;7.05;4.55;;;17.30;99.90;;;;;;5058038;28;20041;-76
2021/10/20 10:32:33;;;;;;;6.07;4.72;;;17.40;99.90;;;;;;5033400;28;20040;-75
2021/10/20 10:35:05;;;;;;;6.78;5.22;;;17.40;99.90;;;;;;5049056;28;20130;-75
2021/10/20 10:37:36;;;;;;;7.57;4.25;;;17.50;99.90;;;;;;5055030;28;20029;-75
2021/10/20 10:40:32;;;;;;;6.18;4.03;;;17.60;99.90;;;;;;5055146;28;20029;-76
2021/10/20 10:43:07;;;;;;;8.40;4.75;;;17.70;99.90;;;;;;5034033;28;20042;-75
2021/10/20 10:45:34;;;;;;;8.65;4.85;;;17.80;99.90;;;;;;5034171;28;20445;-76
2021/10/20 10:48:03;;;;;;;5.45;4.30;;;17.90;99.90;;;;;;5048174;28;20805;-76
2021/10/20 10:50:49;;;;;;;6.10;4.60;;;17.90;99.90;;;;;;5045195;28;20048;-76
2021/10/20 10:53:27;;;;;;;7.95;4.18;;;18.00;99.90;;;;;;5047077;28;20100;-76
2021/10/20 10:56:13;;;;;;;9.10;4.15;;;18.00;99.90;;;;;;5036663;28;20075;-76
2021/10/20 10:59:05;;;;;;;6.90;4.10;;;18.10;99.90;;;;;;5068612;28;20031;-76
2021/10/20 11:01:46;;;;;;;5.47;4.10;;;18.10;99.90;;;;;;5039291;28;20037;-76
2021/10/20 11:04:21;;;;;;;6.28;4.15;;;18.10;99.90;;;;;;5035255;28;20062;-76
2021/10/20 11:06:48;;;;;;;6.55;4.43;;;18.20;99.90;;;;;;5058614;28;20561;-74
2021/10/20 11:09:26;;;;;;;10.25;4.82;;;18.20;99.90;;;;;;5066675;28;20025;-76
2021/10/20 11:11:54;;;;;;;9.80;4.97;;;18.20;99.90;;;;;;5061924;28;20048;-76
2021/10/20 11:14:22;;;;;;;5.43;4.03;;;18.10;99.90;;;;;;5066195;28;20021;-77
2021/10/20 11:16:57;;;;;;;6.95;3.83;;;18.20;99.90;;;;;;5066503;28;20029;-77
2021/10/20 11:19:23;;;;;;;6.45;4.07;;;18.20;99.90;;;;;;5064787;28;20078;-75
2021/10/20 11:21:50;;;;;;;6.90;4.05;;;18.20;99.90;;;;;;5066329;28;20047;-75
2021/10/20 11:24:16;;;;;;;5.78;4.05;;;18.20;99.90;;;;;;5065781;28;20051;-77
2021/10/20 11:26:46;;;;;;;6.88;4.35;;;18.20;99.90;;;;;;5069120;28;20020;-76
2021/10/20 11:29:13;;;;;;;6.95;4.13;;;18.20;99.90;;;;;;5066885;28;20032;-76
2021/10/20 11:31:48;;;;;;;8.65;4.63;;;18.30;99.90;;;;;;5067012;28;20214;-77
2021/10/20 11:34:26;;;;;;;7.05;4.93;;;18.30;99.90;;;;;;5068461;28;20024;-76
2021/10/20 11:36:52;;;;;;;5.97;4.32;;;18.30;99.90;;;;;;5065110;28;20052;-76
2021/10/20 11:39:17;;;;;;;8.15;3.97;;;18.30;99.90;;;;;;5063851;28;20120;-76
2021/10/20 11:41:50;;;;;;;5.25;3.90;;;18.30;99.90;;;;;;5068362;28;20253;-77
2021/10/20 11:44:37;;;;;;;11.63;5.15;;;18.30;99.90;;;;;;5059432;28;20067;-76
2021/10/20 11:47:10;;;;;;;7.20;4.10;;;18.50;99.90;;;;;;5059005;28;20034;-76
2021/10/20 11:49:46;;;;;;;7.85;4.30;;;18.50;99.90;;;;;;5062605;28;20044;-77
2021/10/20 11:52:14;;;;;;;10.82;4.25;;;18.50;99.90;;;;;;5059482;28;20040;-76
2021/10/20 11:54:40;;;;;;;4.82;4.05;;;18.50;99.90;;;;;;5055827;28;20108;-76
2021/10/20 11:57:09;;;;;;;7.13;4.20;;;18.60;99.90;;;;;;5060552;28;20634;-76
2021/10/20 11:59:35;;;;;;;7.55;4.68;;;18.60;99.90;;;;;;5067823;28;20133;-76
2021/10/20 12:02:01;;;;;;;6.20;4.07;;;18.60;99.90;;;;;;5056433;28;20097;-76
2021/10/20 12:04:27;;;;;;;5.22;4.55;;;18.70;99.90;;;;;;5059302;28;20032;-76
2021/10/20 12:06:59;;;;;;;6.22;4.07;;;18.70;99.90;;;;;;5057452;28;20037;-76
2021/10/20 12:09:26;;;;;;;8.10;4.22;;;18.70;99.90;;;;;;5058078;28;20048;-76
2021/10/20 12:11:54;;;;;;;6.80;4.03;;;18.80;99.90;;;;;;5067320;28;20052;-76
2021/10/20 12:14:22;;;;;;;8.68;4.32;;;18.80;99.90;;;;;;5057849;28;20084;-76
2021/10/20 12:16:49;;;;;;;9.90;5.65;;;18.80;99.90;;;;;;5067122;28;20027;-74
2021/10/20 12:19:19;;;;;;;6.57;4.43;;;18.80;99.90;;;;;;5066186;28;20027;-73
2021/10/20 12:21:44;;;;;;;6.75;4.65;;;18.90;99.90;;;;;;5064369;28;20032;-73
2021/10/20 12:24:15;;;;;;;7.00;4.78;;;18.90;99.90;;;;;;5068780;28;20063;-73
2021/10/20 12:26:43;;;;;;;8.05;4.60;;;18.90;99.90;;;;;;5062934;28;20028;-73
2021/10/20 12:29:11;;;;;;;6.65;4.40;;;18.80;99.90;;;;;;5067390;28;20037;-73
2021/10/20 12:31:38;;;;;;;8.80;4.78;;;18.90;99.90;;;;;;5064336;28;20066;-74
2021/10/20 12:34:04;;;;;;;7.85;4.80;;;18.90;99.90;;;;;;5062878;28;20036;-74
2021/10/20 12:36:31;;;;;;;7.05;4.47;;;19.00;99.90;;;;;;5067438;28;20482;-74
2021/10/20 12:38:59;;;;;;;5.93;4.53;;;19.00;99.90;;;;;;5054928;28;20373;-74